Farmville, Virginia
Current Conditions -  °F | °C
As of 8:55 AM on Monday 24 Nov 2014 (Local Time) from KFVX Reporting Station
Overcast Overcast  
Wind Chill: 66°   Ceiling: 3000
Heat Index: 66°   Visibility: 10mi
Dew Point: 58°   Wind: 15mph
Humidity: 77%   Direction: 210°SSW
Pressure: 29.73"   Gusts: 21mph
Location:  37.3°N, 78.39°W
Report Text: KFVX 241355Z AUTO 21013G18KT 10SM SCT020 OVC030 19/15 A2973 RMK AO2 LTG DSNT S T01880146
Loading
Personal Weather Stations






























Interactive Weather Map New forecast layout! Learn more

10-Day Weather Forecast

Advertisements
Track Severe Weather on mobile